sensor_id;sensor_type;location;lat;lon;timestamp;P1;durP1;ratioP1;P2;durP2;ratioP2
39970;SDS011;35425;51.142;17.178;2022-08-25T00:01:18;3.30;;;3.00;;
39970;SDS011;35425;51.142;17.178;2022-08-25T00:03:46;3.15;;;2.95;;
39970;SDS011;35425;51.142;17.178;2022-08-25T00:06:13;3.13;;;2.92;;
39970;SDS011;35425;51.142;17.178;2022-08-25T00:08:40;3.45;;;3.25;;
39970;SDS011;35425;51.142;17.178;2022-08-25T00:11:09;2.90;;;2.70;;
39970;SDS011;35425;51.142;17.178;2022-08-25T00:13:38;3.17;;;2.97;;
39970;SDS011;35425;51.142;17.178;2022-08-25T00:16:04;3.13;;;2.92;;
39970;SDS011;35425;51.142;17.178;2022-08-25T00:18:31;3.30;;;3.00;;
39970;SDS011;35425;51.142;17.178;2022-08-25T00:20:58;3.00;;;2.80;;
39970;SDS011;35425;51.142;17.178;2022-08-25T00:23:24;2.88;;;2.67;;
39970;SDS011;35425;51.142;17.178;2022-08-25T00:25:51;3.00;;;2.80;;
39970;SDS011;35425;51.142;17.178;2022-08-25T00:28:18;2.92;;;2.72;;
39970;SDS011;35425;51.142;17.178;2022-08-25T00:30:44;3.03;;;2.83;;
39970;SDS011;35425;51.142;17.178;2022-08-25T00:33:11;2.80;;;2.60;;
39970;SDS011;35425;51.142;17.178;2022-08-25T00:35:39;2.58;;;2.38;;
39970;SDS011;35425;51.142;17.178;2022-08-25T00:38:10;2.83;;;2.63;;
39970;SDS011;35425;51.142;17.178;2022-08-25T00:40:37;3.03;;;2.72;;
39970;SDS011;35425;51.142;17.178;2022-08-25T00:43:05;3.13;;;2.92;;
39970;SDS011;35425;51.142;17.178;2022-08-25T00:45:32;2.90;;;2.70;;
39970;SDS011;35425;51.142;17.178;2022-08-25T00:47:59;2.80;;;2.60;;
39970;SDS011;35425;51.142;17.178;2022-08-25T00:50:27;2.60;;;2.47;;
39970;SDS011;35425;51.142;17.178;2022-08-25T00:52:55;2.78;;;2.60;;
39970;SDS011;35425;51.142;17.178;2022-08-25T00:55:41;2.60;;;2.40;;
39970;SDS011;35425;51.142;17.178;2022-08-25T00:58:11;2.58;;;2.40;;
39970;SDS011;35425;51.142;17.178;2022-08-25T01:00:41;3.10;;;2.80;;
39970;SDS011;35425;51.142;17.178;2022-08-25T01:03:08;2.75;;;2.55;;
39970;SDS011;35425;51.142;17.178;2022-08-25T01:05:35;2.60;;;2.40;;
39970;SDS011;35425;51.142;17.178;2022-08-25T01:08:02;2.50;;;2.40;;
39970;SDS011;35425;51.142;17.178;2022-08-25T01:10:32;2.58;;;2.40;;
39970;SDS011;35425;51.142;17.178;2022-08-25T01:13:02;2.55;;;2.35;;
39970;SDS011;35425;51.142;17.178;2022-08-25T01:15:31;2.60;;;2.50;;
39970;SDS011;35425;51.142;17.178;2022-08-25T01:17:58;2.78;;;2.58;;
39970;SDS011;35425;51.142;17.178;2022-08-25T01:20:26;2.47;;;2.38;;
39970;SDS011;35425;51.142;17.178;2022-08-25T01:22:55;2.40;;;2.20;;
39970;SDS011;35425;51.142;17.178;2022-08-25T01:25:34;2.90;;;2.70;;
39970;SDS011;35425;51.142;17.178;2022-08-25T01:28:03;2.60;;;2.42;;
39970;SDS011;35425;51.142;17.178;2022-08-25T01:30:30;2.70;;;2.50;;
39970;SDS011;35425;51.142;17.178;2022-08-25T01:32:57;2.35;;;2.25;;
39970;SDS011;35425;51.142;17.178;2022-08-25T01:35:23;2.20;;;2.10;;
39970;SDS011;35425;51.142;17.178;2022-08-25T01:37:50;2.72;;;2.53;;
39970;SDS011;35425;51.142;17.178;2022-08-25T01:40:16;2.30;;;2.20;;
39970;SDS011;35425;51.142;17.178;2022-08-25T01:45:13;2.50;;;2.33;;
39970;SDS011;35425;51.142;17.178;2022-08-25T01:47:40;2.00;;;1.90;;
39970;SDS011;35425;51.142;17.178;2022-08-25T01:50:06;2.30;;;2.20;;
39970;SDS011;35425;51.142;17.178;2022-08-25T01:52:38;2.25;;;2.15;;
39970;SDS011;35425;51.142;17.178;2022-08-25T01:55:10;2.65;;;2.45;;
39970;SDS011;35425;51.142;17.178;2022-08-25T01:57:36;2.13;;;2.03;;
39970;SDS011;35425;51.142;17.178;2022-08-25T02:00:05;2.58;;;2.40;;
39970;SDS011;35425;51.142;17.178;2022-08-25T02:02:32;2.22;;;2.10;;
39970;SDS011;35425;51.142;17.178;2022-08-25T02:04:59;2.40;;;2.30;;
39970;SDS011;35425;51.142;17.178;2022-08-25T02:07:25;2.28;;;2.17;;
39970;SDS011;35425;51.142;17.178;2022-08-25T02:09:52;2.25;;;2.10;;
39970;SDS011;35425;51.142;17.178;2022-08-25T02:12:18;2.20;;;2.10;;
39970;SDS011;35425;51.142;17.178;2022-08-25T02:14:45;2.25;;;2.15;;
39970;SDS011;35425;51.142;17.178;2022-08-25T02:17:12;2.08;;;1.98;;
39970;SDS011;35425;51.142;17.178;2022-08-25T02:19:38;2.40;;;2.30;;
39970;SDS011;35425;51.142;17.178;2022-08-25T02:22:05;2.58;;;2.42;;
39970;SDS011;35425;51.142;17.178;2022-08-25T02:24:32;2.08;;;1.98;;
39970;SDS011;35425;51.142;17.178;2022-08-25T02:26:58;2.33;;;2.22;;
39970;SDS011;35425;51.142;17.178;2022-08-25T02:29:25;2.35;;;2.25;;
39970;SDS011;35425;51.142;17.178;2022-08-25T02:31:51;2.53;;;2.33;;
39970;SDS011;35425;51.142;17.178;2022-08-25T02:34:18;2.10;;;2.00;;
39970;SDS011;35425;51.142;17.178;2022-08-25T02:36:45;2.30;;;2.20;;
39970;SDS011;35425;51.142;17.178;2022-08-25T02:39:11;2.13;;;2.03;;
39970;SDS011;35425;51.142;17.178;2022-08-25T02:41:38;2.35;;;2.25;;
39970;SDS011;35425;51.142;17.178;2022-08-25T02:44:05;2.20;;;2.10;;
39970;SDS011;35425;51.142;17.178;2022-08-25T02:46:32;2.70;;;2.50;;
39970;SDS011;35425;51.142;17.178;2022-08-25T02:48:59;2.20;;;2.10;;
39970;SDS011;35425;51.142;17.178;2022-08-25T02:51:26;2.75;;;2.55;;
39970;SDS011;35425;51.142;17.178;2022-08-25T02:53:56;2.45;;;2.25;;
39970;SDS011;35425;51.142;17.178;2022-08-25T02:56:25;2.28;;;2.17;;
39970;SDS011;35425;51.142;17.178;2022-08-25T02:58:52;2.28;;;2.17;;
39970;SDS011;35425;51.142;17.178;2022-08-25T03:01:19;2.65;;;2.45;;
39970;SDS011;35425;51.142;17.178;2022-08-25T03:03:47;2.08;;;1.98;;
39970;SDS011;35425;51.142;17.178;2022-08-25T03:06:15;2.30;;;2.20;;
39970;SDS011;35425;51.142;17.178;2022-08-25T03:08:42;2.45;;;2.25;;
39970;SDS011;35425;51.142;17.178;2022-08-25T03:11:09;2.10;;;2.00;;
39970;SDS011;35425;51.142;17.178;2022-08-25T03:13:36;2.20;;;2.10;;
39970;SDS011;35425;51.142;17.178;2022-08-25T03:16:03;2.30;;;2.20;;
39970;SDS011;35425;51.142;17.178;2022-08-25T03:18:36;2.70;;;2.50;;
39970;SDS011;35425;51.142;17.178;2022-08-25T03:21:03;2.30;;;2.20;;
39970;SDS011;35425;51.142;17.178;2022-08-25T03:23:29;2.53;;;2.38;;
39970;SDS011;35425;51.142;17.178;2022-08-25T03:25:56;2.10;;;2.00;;
39970;SDS011;35425;51.142;17.178;2022-08-25T03:28:41;2.40;;;2.25;;
39970;SDS011;35425;51.142;17.178;2022-08-25T03:31:08;1.98;;;1.88;;
39970;SDS011;35425;51.142;17.178;2022-08-25T03:33:34;2.30;;;2.20;;
39970;SDS011;35425;51.142;17.178;2022-08-25T03:36:01;2.00;;;1.90;;
39970;SDS011;35425;51.142;17.178;2022-08-25T03:38:28;2.25;;;2.15;;
39970;SDS011;35425;51.142;17.178;2022-08-25T03:40:55;2.20;;;2.10;;
39970;SDS011;35425;51.142;17.178;2022-08-25T03:43:21;2.17;;;2.08;;
39970;SDS011;35425;51.142;17.178;2022-08-25T03:45:48;2.20;;;2.10;;
39970;SDS011;35425;51.142;17.178;2022-08-25T03:48:15;2.05;;;1.95;;
39970;SDS011;35425;51.142;17.178;2022-08-25T03:50:46;2.03;;;1.92;;
39970;SDS011;35425;51.142;17.178;2022-08-25T03:53:17;2.33;;;2.22;;
39970;SDS011;35425;51.142;17.178;2022-08-25T03:55:44;1.70;;;1.60;;
39970;SDS011;35425;51.142;17.178;2022-08-25T03:58:11;2.15;;;2.05;;
39970;SDS011;35425;51.142;17.178;2022-08-25T04:00:37;1.92;;;1.83;;
39970;SDS011;35425;51.142;17.178;2022-08-25T04:03:04;2.03;;;1.92;;
39970;SDS011;35425;51.142;17.178;2022-08-25T04:05:31;1.92;;;1.83;;
39970;SDS011;35425;51.142;17.178;2022-08-25T04:07:58;2.20;;;2.10;;
39970;SDS011;35425;51.142;17.178;2022-08-25T04:10:27;1.92;;;1.83;;
39970;SDS011;35425;51.142;17.178;2022-08-25T04:12:53;1.90;;;1.80;;
39970;SDS011;35425;51.142;17.178;2022-08-25T04:15:21;1.80;;;1.70;;
39970;SDS011;35425;51.142;17.178;2022-08-25T04:17:53;1.80;;;1.70;;
39970;SDS011;35425;51.142;17.178;2022-08-25T04:20:20;2.00;;;1.90;;
39970;SDS011;35425;51.142;17.178;2022-08-25T04:22:46;1.80;;;1.70;;
39970;SDS011;35425;51.142;17.178;2022-08-25T04:25:13;1.70;;;1.60;;
39970;SDS011;35425;51.142;17.178;2022-08-25T04:27:40;2.10;;;2.00;;
39970;SDS011;35425;51.142;17.178;2022-08-25T04:30:06;1.75;;;1.65;;
39970;SDS011;35425;51.142;17.178;2022-08-25T04:32:34;1.80;;;1.70;;
39970;SDS011;35425;51.142;17.178;2022-08-25T04:35:01;1.38;;;1.38;;
39970;SDS011;35425;51.142;17.178;2022-08-25T04:37:27;1.60;;;1.50;;
39970;SDS011;35425;51.142;17.178;2022-08-25T04:39:54;1.35;;;1.35;;
39970;SDS011;35425;51.142;17.178;2022-08-25T04:42:20;1.75;;;1.65;;
39970;SDS011;35425;51.142;17.178;2022-08-25T04:44:47;1.60;;;1.50;;
39970;SDS011;35425;51.142;17.178;2022-08-25T04:47:13;1.70;;;1.60;;
39970;SDS011;35425;51.142;17.178;2022-08-25T04:49:40;1.55;;;1.45;;
39970;SDS011;35425;51.142;17.178;2022-08-25T04:52:06;1.38;;;1.27;;
39970;SDS011;35425;51.142;17.178;2022-08-25T04:54:39;1.30;;;1.20;;
39970;SDS011;35425;51.142;17.178;2022-08-25T04:57:06;1.80;;;1.70;;
39970;SDS011;35425;51.142;17.178;2022-08-25T04:59:32;1.67;;;1.50;;
39970;SDS011;35425;51.142;17.178;2022-08-25T05:01:59;1.50;;;1.40;;
39970;SDS011;35425;51.142;17.178;2022-08-25T05:04:31;1.70;;;1.60;;
39970;SDS011;35425;51.142;17.178;2022-08-25T05:06:59;1.60;;;1.50;;
39970;SDS011;35425;51.142;17.178;2022-08-25T05:09:26;1.75;;;1.65;;
39970;SDS011;35425;51.142;17.178;2022-08-25T05:11:53;1.65;;;1.55;;
39970;SDS011;35425;51.142;17.178;2022-08-25T05:14:20;1.48;;;1.38;;
39970;SDS011;35425;51.142;17.178;2022-08-25T05:16:51;1.60;;;1.50;;
39970;SDS011;35425;51.142;17.178;2022-08-25T05:19:18;1.75;;;1.65;;
39970;SDS011;35425;51.142;17.178;2022-08-25T05:21:45;1.45;;;1.38;;
39970;SDS011;35425;51.142;17.178;2022-08-25T05:24:11;1.65;;;1.55;;
39970;SDS011;35425;51.142;17.178;2022-08-25T05:26:38;1.50;;;1.45;;
39970;SDS011;35425;51.142;17.178;2022-08-25T05:29:04;1.55;;;1.45;;
39970;SDS011;35425;51.142;17.178;2022-08-25T05:31:31;1.65;;;1.55;;
39970;SDS011;35425;51.142;17.178;2022-08-25T05:34:05;1.60;;;1.50;;
39970;SDS011;35425;51.142;17.178;2022-08-25T05:36:32;1.52;;;1.42;;
39970;SDS011;35425;51.142;17.178;2022-08-25T05:38:59;1.48;;;1.38;;
39970;SDS011;35425;51.142;17.178;2022-08-25T05:41:27;1.70;;;1.60;;
39970;SDS011;35425;51.142;17.178;2022-08-25T05:43:54;1.63;;;1.52;;
39970;SDS011;35425;51.142;17.178;2022-08-25T05:46:21;1.63;;;1.52;;
39970;SDS011;35425;51.142;17.178;2022-08-25T05:48:47;1.23;;;1.23;;
39970;SDS011;35425;51.142;17.178;2022-08-25T05:51:14;1.60;;;1.50;;
39970;SDS011;35425;51.142;17.178;2022-08-25T05:53:42;1.80;;;1.70;;
39970;SDS011;35425;51.142;17.178;2022-08-25T05:56:09;1.92;;;1.83;;
39970;SDS011;35425;51.142;17.178;2022-08-25T05:58:36;1.70;;;1.60;;
39970;SDS011;35425;51.142;17.178;2022-08-25T06:01:03;1.80;;;1.60;;
39970;SDS011;35425;51.142;17.178;2022-08-25T06:03:48;2.10;;;1.50;;
39970;SDS011;35425;51.142;17.178;2022-08-25T06:06:16;1.80;;;1.65;;
39970;SDS011;35425;51.142;17.178;2022-08-25T06:08:42;2.85;;;2.05;;
39970;SDS011;35425;51.142;17.178;2022-08-25T06:11:10;2.35;;;2.20;;
39970;SDS011;35425;51.142;17.178;2022-08-25T06:13:38;2.17;;;1.98;;
39970;SDS011;35425;51.142;17.178;2022-08-25T06:16:04;2.00;;;1.90;;
39970;SDS011;35425;51.142;17.178;2022-08-25T06:18:31;2.05;;;1.95;;
39970;SDS011;35425;51.142;17.178;2022-08-25T06:20:58;1.90;;;1.80;;
39970;SDS011;35425;51.142;17.178;2022-08-25T06:23:24;2.20;;;2.00;;
39970;SDS011;35425;51.142;17.178;2022-08-25T06:25:52;1.90;;;1.80;;
39970;SDS011;35425;51.142;17.178;2022-08-25T06:28:19;2.13;;;2.03;;
39970;SDS011;35425;51.142;17.178;2022-08-25T06:30:46;3.13;;;2.10;;
39970;SDS011;35425;51.142;17.178;2022-08-25T06:33:12;2.08;;;1.98;;
39970;SDS011;35425;51.142;17.178;2022-08-25T06:35:40;1.92;;;1.83;;
39970;SDS011;35425;51.142;17.178;2022-08-25T06:38:07;1.85;;;1.75;;
39970;SDS011;35425;51.142;17.178;2022-08-25T06:40:33;2.30;;;2.10;;
39970;SDS011;35425;51.142;17.178;2022-08-25T06:43:00;2.22;;;2.03;;
39970;SDS011;35425;51.142;17.178;2022-08-25T06:45:26;2.13;;;1.92;;
39970;SDS011;35425;51.142;17.178;2022-08-25T06:47:53;2.30;;;2.10;;
39970;SDS011;35425;51.142;17.178;2022-08-25T06:50:22;1.80;;;1.70;;
39970;SDS011;35425;51.142;17.178;2022-08-25T06:52:49;2.17;;;2.08;;
39970;SDS011;35425;51.142;17.178;2022-08-25T06:55:16;2.20;;;2.05;;
39970;SDS011;35425;51.142;17.178;2022-08-25T06:57:43;2.05;;;1.95;;
39970;SDS011;35425;51.142;17.178;2022-08-25T07:00:10;2.10;;;2.00;;
39970;SDS011;35425;51.142;17.178;2022-08-25T07:02:37;2.05;;;1.95;;
39970;SDS011;35425;51.142;17.178;2022-08-25T07:05:04;2.28;;;2.08;;
39970;SDS011;35425;51.142;17.178;2022-08-25T07:07:33;2.13;;;1.92;;
39970;SDS011;35425;51.142;17.178;2022-08-25T07:10:09;2.30;;;1.73;;
39970;SDS011;35425;51.142;17.178;2022-08-25T07:12:36;2.03;;;1.92;;
39970;SDS011;35425;51.142;17.178;2022-08-25T07:15:02;1.90;;;1.80;;
39970;SDS011;35425;51.142;17.178;2022-08-25T07:17:45;2.30;;;2.10;;
39970;SDS011;35425;51.142;17.178;2022-08-25T07:20:12;1.90;;;1.80;;
39970;SDS011;35425;51.142;17.178;2022-08-25T07:22:39;1.67;;;1.55;;
39970;SDS011;35425;51.142;17.178;2022-08-25T07:25:07;1.92;;;1.83;;
39970;SDS011;35425;51.142;17.178;2022-08-25T07:27:34;2.35;;;2.25;;
39970;SDS011;35425;51.142;17.178;2022-08-25T07:30:00;1.98;;;1.88;;
39970;SDS011;35425;51.142;17.178;2022-08-25T07:32:29;2.22;;;1.90;;
39970;SDS011;35425;51.142;17.178;2022-08-25T07:34:56;2.20;;;2.10;;
39970;SDS011;35425;51.142;17.178;2022-08-25T07:37:41;2.20;;;2.10;;
39970;SDS011;35425;51.142;17.178;2022-08-25T07:40:25;2.40;;;2.20;;
39970;SDS011;35425;51.142;17.178;2022-08-25T07:42:54;2.20;;;2.05;;
39970;SDS011;35425;51.142;17.178;2022-08-25T07:45:22;2.42;;;2.22;;
39970;SDS011;35425;51.142;17.178;2022-08-25T07:47:57;2.40;;;2.30;;
39970;SDS011;35425;51.142;17.178;2022-08-25T07:50:25;2.40;;;2.20;;
39970;SDS011;35425;51.142;17.178;2022-08-25T07:52:52;2.28;;;2.17;;
39970;SDS011;35425;51.142;17.178;2022-08-25T07:55:21;2.38;;;2.17;;
39970;SDS011;35425;51.142;17.178;2022-08-25T07:57:47;2.75;;;2.55;;
39970;SDS011;35425;51.142;17.178;2022-08-25T08:00:27;2.53;;;2.33;;
39970;SDS011;35425;51.142;17.178;2022-08-25T08:02:55;2.70;;;2.50;;
39970;SDS011;35425;51.142;17.178;2022-08-25T08:05:22;2.10;;;2.00;;
39970;SDS011;35425;51.142;17.178;2022-08-25T08:07:49;2.40;;;2.20;;
39970;SDS011;35425;51.142;17.178;2022-08-25T08:10:16;2.60;;;2.47;;
39970;SDS011;35425;51.142;17.178;2022-08-25T08:13:03;2.45;;;2.25;;
39970;SDS011;35425;51.142;17.178;2022-08-25T08:15:33;2.67;;;2.47;;
39970;SDS011;35425;51.142;17.178;2022-08-25T08:17:59;2.50;;;2.33;;
39970;SDS011;35425;51.142;17.178;2022-08-25T08:20:28;2.35;;;2.15;;
39970;SDS011;35425;51.142;17.178;2022-08-25T08:23:08;2.55;;;2.35;;
39970;SDS011;35425;51.142;17.178;2022-08-25T08:25:34;2.45;;;2.25;;
39970;SDS011;35425;51.142;17.178;2022-08-25T08:28:01;2.60;;;2.40;;
39970;SDS011;35425;51.142;17.178;2022-08-25T08:30:27;2.30;;;2.20;;
39970;SDS011;35425;51.142;17.178;2022-08-25T08:32:54;2.70;;;2.50;;
39970;SDS011;35425;51.142;17.178;2022-08-25T08:35:37;2.92;;;2.72;;
39970;SDS011;35425;51.142;17.178;2022-08-25T08:38:04;2.33;;;2.00;;
39970;SDS011;35425;51.142;17.178;2022-08-25T08:40:55;2.60;;;2.40;;
39970;SDS011;35425;51.142;17.178;2022-08-25T08:43:48;2.63;;;2.40;;
39970;SDS011;35425;51.142;17.178;2022-08-25T08:46:17;2.22;;;2.13;;
39970;SDS011;35425;51.142;17.178;2022-08-25T08:51:21;2.50;;;2.40;;
39970;SDS011;35425;51.142;17.178;2022-08-25T08:53:55;2.63;;;2.42;;
39970;SDS011;35425;51.142;17.178;2022-08-25T08:56:24;2.65;;;2.45;;
39970;SDS011;35425;51.142;17.178;2022-08-25T08:59:04;2.50;;;2.40;;
39970;SDS011;35425;51.142;17.178;2022-08-25T09:01:39;2.65;;;2.45;;
39970;SDS011;35425;51.142;17.178;2022-08-25T09:04:09;2.70;;;2.50;;
39970;SDS011;35425;51.142;17.178;2022-08-25T09:06:42;2.50;;;2.35;;
39970;SDS011;35425;51.142;17.178;2022-08-25T09:09:10;2.30;;;2.20;;
39970;SDS011;35425;51.142;17.178;2022-08-25T09:14:15;2.42;;;2.25;;
39970;SDS011;35425;51.142;17.178;2022-08-25T09:17:00;2.72;;;2.53;;
39970;SDS011;35425;51.142;17.178;2022-08-25T09:25:06;2.67;;;2.47;;
39970;SDS011;35425;51.142;17.178;2022-08-25T09:27:36;2.28;;;2.08;;
39970;SDS011;35425;51.142;17.178;2022-08-25T09:30:07;2.38;;;2.28;;
39970;SDS011;35425;51.142;17.178;2022-08-25T09:33:09;2.58;;;2.38;;
39970;SDS011;35425;51.142;17.178;2022-08-25T09:35:31;2.25;;;2.10;;
39970;SDS011;35425;51.142;17.178;2022-08-25T09:38:04;2.42;;;2.22;;
39970;SDS011;35425;51.142;17.178;2022-08-25T09:40:32;2.50;;;2.30;;
39970;SDS011;35425;51.142;17.178;2022-08-25T09:43:00;2.10;;;1.98;;
39970;SDS011;35425;51.142;17.178;2022-08-25T09:45:42;2.20;;;2.10;;
39970;SDS011;35425;51.142;17.178;2022-08-25T09:48:19;2.38;;;2.17;;
39970;SDS011;35425;51.142;17.178;2022-08-25T09:50:48;2.40;;;2.20;;
39970;SDS011;35425;51.142;17.178;2022-08-25T09:53:15;2.47;;;2.28;;
39970;SDS011;35425;51.142;17.178;2022-08-25T09:58:18;2.45;;;2.25;;
39970;SDS011;35425;51.142;17.178;2022-08-25T10:01:33;2.42;;;2.00;;
39970;SDS011;35425;51.142;17.178;2022-08-25T10:03:34;2.83;;;2.17;;
39970;SDS011;35425;51.142;17.178;2022-08-25T10:06:03;2.70;;;2.50;;
39970;SDS011;35425;51.142;17.178;2022-08-25T10:08:34;3.60;;;2.10;;
39970;SDS011;35425;51.142;17.178;2022-08-25T10:11:06;2.40;;;2.20;;
39970;SDS011;35425;51.142;17.178;2022-08-25T10:13:36;2.50;;;2.30;;
39970;SDS011;35425;51.142;17.178;2022-08-25T10:16:11;2.47;;;2.28;;
39970;SDS011;35425;51.142;17.178;2022-08-25T10:18:59;2.42;;;2.22;;
39970;SDS011;35425;51.142;17.178;2022-08-25T10:21:26;2.50;;;2.30;;
39970;SDS011;35425;51.142;17.178;2022-08-25T10:23:53;2.20;;;2.10;;
39970;SDS011;35425;51.142;17.178;2022-08-25T10:31:47;2.40;;;2.20;;
39970;SDS011;35425;51.142;17.178;2022-08-25T10:37:30;3.15;;;2.70;;
39970;SDS011;35425;51.142;17.178;2022-08-25T10:39:40;3.58;;;2.50;;
39970;SDS011;35425;51.142;17.178;2022-08-25T10:44:42;2.30;;;2.20;;
39970;SDS011;35425;51.142;17.178;2022-08-25T10:47:41;1.92;;;1.80;;
39970;SDS011;35425;51.142;17.178;2022-08-25T10:52:48;2.60;;;2.40;;
39970;SDS011;35425;51.142;17.178;2022-08-25T10:55:33;2.22;;;2.08;;
39970;SDS011;35425;51.142;17.178;2022-08-25T11:03:35;2.78;;;2.20;;
39970;SDS011;35425;51.142;17.178;2022-08-25T11:06:04;3.90;;;2.03;;
39970;SDS011;35425;51.142;17.178;2022-08-25T11:11:01;3.53;;;2.38;;
39970;SDS011;35425;51.142;17.178;2022-08-25T11:13:46;4.72;;;2.70;;
39970;SDS011;35425;51.142;17.178;2022-08-25T11:16:14;4.05;;;2.13;;
39970;SDS011;35425;51.142;17.178;2022-08-25T11:21:19;3.85;;;2.20;;
39970;SDS011;35425;51.142;17.178;2022-08-25T11:23:52;3.00;;;2.33;;
39970;SDS011;35425;51.142;17.178;2022-08-25T11:26:22;2.58;;;2.35;;
39970;SDS011;35425;51.142;17.178;2022-08-25T11:29:00;4.60;;;2.40;;
39970;SDS011;35425;51.142;17.178;2022-08-25T11:31:28;4.55;;;2.50;;
39970;SDS011;35425;51.142;17.178;2022-08-25T11:33:54;2.80;;;2.30;;
39970;SDS011;35425;51.142;17.178;2022-08-25T11:36:26;2.88;;;2.30;;
39970;SDS011;35425;51.142;17.178;2022-08-25T11:39:10;2.95;;;2.00;;
39970;SDS011;35425;51.142;17.178;2022-08-25T11:41:55;5.25;;;2.50;;
39970;SDS011;35425;51.142;17.178;2022-08-25T11:44:46;2.78;;;2.30;;
39970;SDS011;35425;51.142;17.178;2022-08-25T11:50:06;4.40;;;2.30;;
39970;SDS011;35425;51.142;17.178;2022-08-25T11:55:17;5.13;;;3.00;;
39970;SDS011;35425;51.142;17.178;2022-08-25T11:57:49;4.80;;;2.30;;
39970;SDS011;35425;51.142;17.178;2022-08-25T12:02:54;4.55;;;2.28;;
39970;SDS011;35425;51.142;17.178;2022-08-25T12:08:00;4.32;;;2.60;;
39970;SDS011;35425;51.142;17.178;2022-08-25T12:16:00;4.15;;;2.03;;
39970;SDS011;35425;51.142;17.178;2022-08-25T12:23:27;3.58;;;2.47;;
39970;SDS011;35425;51.142;17.178;2022-08-25T12:25:57;3.42;;;2.05;;
39970;SDS011;35425;51.142;17.178;2022-08-25T12:28:35;2.78;;;2.15;;
39970;SDS011;35425;51.142;17.178;2022-08-25T12:31:30;4.10;;;2.03;;
39970;SDS011;35425;51.142;17.178;2022-08-25T12:34:07;3.47;;;1.90;;
39970;SDS011;35425;51.142;17.178;2022-08-25T12:36:37;4.32;;;2.10;;
39970;SDS011;35425;51.142;17.178;2022-08-25T12:39:08;3.13;;;2.22;;
39970;SDS011;35425;51.142;17.178;2022-08-25T12:42:03;4.10;;;2.05;;
39970;SDS011;35425;51.142;17.178;2022-08-25T12:44:42;4.75;;;2.20;;
39970;SDS011;35425;51.142;17.178;2022-08-25T12:49:50;4.95;;;1.95;;
39970;SDS011;35425;51.142;17.178;2022-08-25T12:52:17;5.65;;;2.13;;
39970;SDS011;35425;51.142;17.178;2022-08-25T12:54:47;5.32;;;2.28;;
39970;SDS011;35425;51.142;17.178;2022-08-25T12:59:55;2.90;;;2.13;;
39970;SDS011;35425;51.142;17.178;2022-08-25T13:10:50;6.07;;;2.15;;
39970;SDS011;35425;51.142;17.178;2022-08-25T13:13:47;3.63;;;1.90;;
39970;SDS011;35425;51.142;17.178;2022-08-25T13:16:18;4.25;;;1.88;;
39970;SDS011;35425;51.142;17.178;2022-08-25T13:18:45;3.20;;;2.10;;
39970;SDS011;35425;51.142;17.178;2022-08-25T13:23:45;3.10;;;1.60;;
39970;SDS011;35425;51.142;17.178;2022-08-25T13:26:16;3.45;;;1.85;;
39970;SDS011;35425;51.142;17.178;2022-08-25T13:28:49;3.58;;;1.85;;
39970;SDS011;35425;51.142;17.178;2022-08-25T13:31:18;3.72;;;1.83;;
39970;SDS011;35425;51.142;17.178;2022-08-25T13:34:06;3.97;;;2.30;;
39970;SDS011;35425;51.142;17.178;2022-08-25T13:36:35;5.05;;;2.08;;
39970;SDS011;35425;51.142;17.178;2022-08-25T13:39:26;4.13;;;1.88;;
39970;SDS011;35425;51.142;17.178;2022-08-25T13:42:14;4.78;;;1.90;;
39970;SDS011;35425;51.142;17.178;2022-08-25T13:44:41;4.15;;;1.70;;
39970;SDS011;35425;51.142;17.178;2022-08-25T13:47:35;5.57;;;1.95;;
39970;SDS011;35425;51.142;17.178;2022-08-25T13:52:43;7.65;;;2.42;;
39970;SDS011;35425;51.142;17.178;2022-08-25T13:55:12;4.10;;;2.30;;
39970;SDS011;35425;51.142;17.178;2022-08-25T13:57:45;4.97;;;2.28;;
39970;SDS011;35425;51.142;17.178;2022-08-25T14:00:12;5.13;;;2.17;;
39970;SDS011;35425;51.142;17.178;2022-08-25T14:05:09;5.35;;;1.95;;
39970;SDS011;35425;51.142;17.178;2022-08-25T14:07:36;5.47;;;2.70;;
39970;SDS011;35425;51.142;17.178;2022-08-25T14:10:08;5.35;;;2.00;;
39970;SDS011;35425;51.142;17.178;2022-08-25T14:12:46;5.05;;;2.15;;
39970;SDS011;35425;51.142;17.178;2022-08-25T14:17:47;5.13;;;2.00;;
39970;SDS011;35425;51.142;17.178;2022-08-25T14:20:16;6.90;;;2.70;;
39970;SDS011;35425;51.142;17.178;2022-08-25T14:22:43;6.25;;;2.53;;
39970;SDS011;35425;51.142;17.178;2022-08-25T14:25:10;5.95;;;2.13;;
39970;SDS011;35425;51.142;17.178;2022-08-25T14:27:40;4.03;;;2.17;;
39970;SDS011;35425;51.142;17.178;2022-08-25T14:30:26;6.45;;;2.13;;
39970;SDS011;35425;51.142;17.178;2022-08-25T14:32:54;5.95;;;2.25;;
39970;SDS011;35425;51.142;17.178;2022-08-25T14:35:21;4.30;;;2.22;;
39970;SDS011;35425;51.142;17.178;2022-08-25T14:37:47;3.50;;;1.88;;
39970;SDS011;35425;51.142;17.178;2022-08-25T14:40:14;5.13;;;2.55;;
39970;SDS011;35425;51.142;17.178;2022-08-25T14:42:45;4.80;;;2.22;;
39970;SDS011;35425;51.142;17.178;2022-08-25T14:45:16;5.38;;;2.28;;
39970;SDS011;35425;51.142;17.178;2022-08-25T14:47:43;5.78;;;2.35;;
39970;SDS011;35425;51.142;17.178;2022-08-25T14:50:15;4.32;;;2.30;;
39970;SDS011;35425;51.142;17.178;2022-08-25T14:52:46;6.43;;;2.17;;
39970;SDS011;35425;51.142;17.178;2022-08-25T14:55:17;5.80;;;2.28;;
39970;SDS011;35425;51.142;17.178;2022-08-25T14:57:57;4.07;;;2.00;;
39970;SDS011;35425;51.142;17.178;2022-08-25T15:00:23;4.60;;;2.25;;
39970;SDS011;35425;51.142;17.178;2022-08-25T15:02:51;4.68;;;2.28;;
39970;SDS011;35425;51.142;17.178;2022-08-25T15:05:22;5.55;;;2.20;;
39970;SDS011;35425;51.142;17.178;2022-08-25T15:07:50;4.75;;;1.80;;
39970;SDS011;35425;51.142;17.178;2022-08-25T15:10:38;4.15;;;2.08;;
39970;SDS011;35425;51.142;17.178;2022-08-25T15:13:04;4.68;;;2.35;;
39970;SDS011;35425;51.142;17.178;2022-08-25T15:15:32;4.32;;;2.03;;
39970;SDS011;35425;51.142;17.178;2022-08-25T15:18:00;4.90;;;2.28;;
39970;SDS011;35425;51.142;17.178;2022-08-25T15:20:26;4.70;;;2.35;;
39970;SDS011;35425;51.142;17.178;2022-08-25T15:22:54;4.35;;;2.22;;
39970;SDS011;35425;51.142;17.178;2022-08-25T15:25:20;4.82;;;2.30;;
39970;SDS011;35425;51.142;17.178;2022-08-25T15:27:49;6.25;;;2.50;;
39970;SDS011;35425;51.142;17.178;2022-08-25T15:30:16;6.03;;;2.20;;
39970;SDS011;35425;51.142;17.178;2022-08-25T15:32:43;5.05;;;2.28;;
39970;SDS011;35425;51.142;17.178;2022-08-25T15:35:13;3.70;;;2.00;;
39970;SDS011;35425;51.142;17.178;2022-08-25T15:37:40;5.20;;;2.50;;
39970;SDS011;35425;51.142;17.178;2022-08-25T15:40:07;5.07;;;2.28;;
39970;SDS011;35425;51.142;17.178;2022-08-25T15:42:35;4.55;;;2.13;;
39970;SDS011;35425;51.142;17.178;2022-08-25T15:45:02;4.95;;;2.65;;
39970;SDS011;35425;51.142;17.178;2022-08-25T15:47:30;4.97;;;2.45;;
39970;SDS011;35425;51.142;17.178;2022-08-25T15:50:04;4.72;;;2.75;;
39970;SDS011;35425;51.142;17.178;2022-08-25T15:52:32;4.57;;;2.30;;
39970;SDS011;35425;51.142;17.178;2022-08-25T15:55:12;4.78;;;2.40;;
39970;SDS011;35425;51.142;17.178;2022-08-25T15:57:39;5.15;;;2.42;;
39970;SDS011;35425;51.142;17.178;2022-08-25T16:00:08;6.05;;;2.60;;
39970;SDS011;35425;51.142;17.178;2022-08-25T16:02:41;4.30;;;2.33;;
39970;SDS011;35425;51.142;17.178;2022-08-25T16:05:10;4.38;;;2.20;;
39970;SDS011;35425;51.142;17.178;2022-08-25T16:07:38;6.05;;;2.40;;
39970;SDS011;35425;51.142;17.178;2022-08-25T16:10:05;5.43;;;2.42;;
39970;SDS011;35425;51.142;17.178;2022-08-25T16:12:31;5.25;;;2.55;;
39970;SDS011;35425;51.142;17.178;2022-08-25T16:14:58;5.03;;;2.17;;